Terminal Aerodrome Forecast
Issued by NWS Grand Forks, ND

Home | Current Version | Previous Version | Text Only | Print | Product List | Glossary Off
Versions: 1 2 3 4 5 6 7 8 9 10 11 12 13 14 15 16 17 18 19 20

323
FTUS43 KFGF 090158 AAB
TAFFAR
TAF AMD
KFAR 090158Z 0902/0924 35017KT P6SM SCT030
      TEMPO 0902/0903 BKN030
     FM090300 35015KT P6SM SCT030
     FM090900 34010KT P6SM BKN250=

USA.gov is the U.S. government's official web portal to all federal, state and local government web resources and services.